Ashwood, Texas
Current Conditions -  °F | °C
As of 10:53 AM on Thursday 30 Oct 2014 (Local Time) from KLBX Reporting Station
Overcast Overcast  
Wind Chill: 21°   Ceiling: 2600
Heat Index: 21°   Visibility: 10mi
Dew Point: 16°   Wind: 7mph
Humidity: 71%   Direction: 40°NE
Pressure: 30.13"   Gusts: NA
Location:  29.0235°N, 95.7113°W
Report Text: KLBX 301553Z AUTO 04006KT 10SM OVC026 21/16 A3013 RMK AO2 SLP203 T02110156
Loading
Personal Weather Stations






























Interactive Weather Map
Tropical Storm Tracking
New forecast layout! Learn more

10-Day Weather Forecast

Advertisements
Track Severe Weather on mobile